sensor_id;sensor_type;location;lat;lon;timestamp;temperature;humidity
19365;DHT22;9818;48.382;10.850;2022-07-10T00:00:17;17.50;99.90
19365;DHT22;9818;48.382;10.850;2022-07-10T00:02:49;17.50;99.90
19365;DHT22;9818;48.382;10.850;2022-07-10T00:05:18;17.50;99.90
19365;DHT22;9818;48.382;10.850;2022-07-10T00:07:46;17.40;99.90
19365;DHT22;9818;48.382;10.850;2022-07-10T00:10:15;17.40;99.90
19365;DHT22;9818;48.382;10.850;2022-07-10T00:12:44;17.30;99.90
19365;DHT22;9818;48.382;10.850;2022-07-10T00:15:13;17.20;99.90
19365;DHT22;9818;48.382;10.850;2022-07-10T00:17:42;17.20;99.90
19365;DHT22;9818;48.382;10.850;2022-07-10T00:20:14;17.20;99.90
19365;DHT22;9818;48.382;10.850;2022-07-10T00:22:43;17.10;99.90
19365;DHT22;9818;48.382;10.850;2022-07-10T00:25:12;17.10;99.90
19365;DHT22;9818;48.382;10.850;2022-07-10T00:27:41;17.20;99.90
19365;DHT22;9818;48.382;10.850;2022-07-10T00:30:10;17.30;99.90
19365;DHT22;9818;48.382;10.850;2022-07-10T00:32:39;17.30;99.90
19365;DHT22;9818;48.382;10.850;2022-07-10T00:35:08;17.30;99.90
19365;DHT22;9818;48.382;10.850;2022-07-10T00:37:39;17.30;99.90
19365;DHT22;9818;48.382;10.850;2022-07-10T00:40:08;17.30;99.90
19365;DHT22;9818;48.382;10.850;2022-07-10T00:42:37;17.30;99.90
19365;DHT22;9818;48.382;10.850;2022-07-10T00:45:06;17.30;99.90
19365;DHT22;9818;48.382;10.850;2022-07-10T00:47:35;17.20;99.90
19365;DHT22;9818;48.382;10.850;2022-07-10T00:50:04;17.20;99.90
19365;DHT22;9818;48.382;10.850;2022-07-10T00:52:34;17.20;99.90
19365;DHT22;9818;48.382;10.850;2022-07-10T00:55:07;17.10;99.90
19365;DHT22;9818;48.382;10.850;2022-07-10T00:57:36;17.00;99.90
19365;DHT22;9818;48.382;10.850;2022-07-10T01:00:06;16.90;99.90
19365;DHT22;9818;48.382;10.850;2022-07-10T01:02:37;16.80;99.90
19365;DHT22;9818;48.382;10.850;2022-07-10T01:05:06;16.70;99.90
19365;DHT22;9818;48.382;10.850;2022-07-10T01:07:35;16.60;99.90
19365;DHT22;9818;48.382;10.850;2022-07-10T01:19:55;16.40;99.90
19365;DHT22;9818;48.382;10.850;2022-07-10T01:22:26;16.30;99.90
19365;DHT22;9818;48.382;10.850;2022-07-10T01:24:55;16.30;99.90
19365;DHT22;9818;48.382;10.850;2022-07-10T01:27:24;16.20;99.90
19365;DHT22;9818;48.382;10.850;2022-07-10T01:29:53;16.20;99.90
19365;DHT22;9818;48.382;10.850;2022-07-10T01:32:22;16.10;99.90
19365;DHT22;9818;48.382;10.850;2022-07-10T01:34:51;16.10;99.90
19365;DHT22;9818;48.382;10.850;2022-07-10T01:37:20;16.10;99.90
19365;DHT22;9818;48.382;10.850;2022-07-10T01:39:52;16.20;99.90
19365;DHT22;9818;48.382;10.850;2022-07-10T01:42:20;16.20;99.90
19365;DHT22;9818;48.382;10.850;2022-07-10T01:44:49;16.20;99.90
19365;DHT22;9818;48.382;10.850;2022-07-10T01:47:19;16.20;99.90
19365;DHT22;9818;48.382;10.850;2022-07-10T01:49:50;16.10;99.90
19365;DHT22;9818;48.382;10.850;2022-07-10T01:52:19;16.00;99.90
19365;DHT22;9818;48.382;10.850;2022-07-10T01:54:51;16.00;99.90
19365;DHT22;9818;48.382;10.850;2022-07-10T01:57:20;15.90;99.90
19365;DHT22;9818;48.382;10.850;2022-07-10T01:59:48;15.80;99.90
19365;DHT22;9818;48.382;10.850;2022-07-10T02:02:17;15.80;99.90
19365;DHT22;9818;48.382;10.850;2022-07-10T02:04:47;15.80;99.90
19365;DHT22;9818;48.382;10.850;2022-07-10T02:07:15;15.70;99.90
19365;DHT22;9818;48.382;10.850;2022-07-10T02:09:45;15.70;99.90
19365;DHT22;9818;48.382;10.850;2022-07-10T02:12:16;15.70;99.90
19365;DHT22;9818;48.382;10.850;2022-07-10T02:14:45;15.50;99.90
19365;DHT22;9818;48.382;10.850;2022-07-10T02:17:13;15.50;99.90
19365;DHT22;9818;48.382;10.850;2022-07-10T02:19:42;15.50;99.90
19365;DHT22;9818;48.382;10.850;2022-07-10T02:22:11;15.40;99.90
19365;DHT22;9818;48.382;10.850;2022-07-10T02:24:40;15.30;99.90
19365;DHT22;9818;48.382;10.850;2022-07-10T02:27:09;15.30;99.90
19365;DHT22;9818;48.382;10.850;2022-07-10T02:29:40;15.30;99.90
19365;DHT22;9818;48.382;10.850;2022-07-10T02:32:09;15.30;99.90
19365;DHT22;9818;48.382;10.850;2022-07-10T02:34:37;15.30;99.90
19365;DHT22;9818;48.382;10.850;2022-07-10T02:37:06;15.20;99.90
19365;DHT22;9818;48.382;10.850;2022-07-10T02:39:35;15.20;99.90
19365;DHT22;9818;48.382;10.850;2022-07-10T02:42:04;15.10;99.90
19365;DHT22;9818;48.382;10.850;2022-07-10T02:44:33;15.10;99.90
19365;DHT22;9818;48.382;10.850;2022-07-10T02:47:04;15.10;99.90
19365;DHT22;9818;48.382;10.850;2022-07-10T02:49:33;15.10;99.90
19365;DHT22;9818;48.382;10.850;2022-07-10T02:52:02;15.10;99.90
19365;DHT22;9818;48.382;10.850;2022-07-10T02:54:31;15.10;99.90
19365;DHT22;9818;48.382;10.850;2022-07-10T02:57:00;15.10;99.90
19365;DHT22;9818;48.382;10.850;2022-07-10T02:59:28;15.00;99.90
19365;DHT22;9818;48.382;10.850;2022-07-10T03:01:57;14.90;99.90
19365;DHT22;9818;48.382;10.850;2022-07-10T03:04:29;14.90;99.90
19365;DHT22;9818;48.382;10.850;2022-07-10T03:06:57;14.90;99.90
19365;DHT22;9818;48.382;10.850;2022-07-10T03:09:26;14.90;99.90
19365;DHT22;9818;48.382;10.850;2022-07-10T03:11:55;14.90;99.90
19365;DHT22;9818;48.382;10.850;2022-07-10T03:14:23;14.80;99.90
19365;DHT22;9818;48.382;10.850;2022-07-10T03:16:52;14.90;99.90
19365;DHT22;9818;48.382;10.850;2022-07-10T03:19:21;14.80;99.90
19365;DHT22;9818;48.382;10.850;2022-07-10T03:21:52;14.80;99.90
19365;DHT22;9818;48.382;10.850;2022-07-10T03:24:21;14.80;99.90
19365;DHT22;9818;48.382;10.850;2022-07-10T03:26:50;14.80;99.90
19365;DHT22;9818;48.382;10.850;2022-07-10T03:29:19;14.70;99.90
19365;DHT22;9818;48.382;10.850;2022-07-10T03:31:47;14.70;99.90
19365;DHT22;9818;48.382;10.850;2022-07-10T03:34:16;14.70;99.90
19365;DHT22;9818;48.382;10.850;2022-07-10T03:36:45;14.70;99.90
19365;DHT22;9818;48.382;10.850;2022-07-10T03:39:16;14.80;99.90
19365;DHT22;9818;48.382;10.850;2022-07-10T03:41:45;14.70;99.90
19365;DHT22;9818;48.382;10.850;2022-07-10T03:44:13;14.70;99.90
19365;DHT22;9818;48.382;10.850;2022-07-10T03:46:42;14.70;99.90
19365;DHT22;9818;48.382;10.850;2022-07-10T03:49:11;14.80;99.90
19365;DHT22;9818;48.382;10.850;2022-07-10T03:51:40;14.90;99.90
19365;DHT22;9818;48.382;10.850;2022-07-10T03:54:09;15.00;99.90
19365;DHT22;9818;48.382;10.850;2022-07-10T03:56:40;15.00;99.90
19365;DHT22;9818;48.382;10.850;2022-07-10T03:59:21;15.10;99.90
19365;DHT22;9818;48.382;10.850;2022-07-10T04:01:50;15.20;99.90
19365;DHT22;9818;48.382;10.850;2022-07-10T04:04:20;15.20;99.90
19365;DHT22;9818;48.382;10.850;2022-07-10T04:06:49;15.30;99.90
19365;DHT22;9818;48.382;10.850;2022-07-10T04:09:18;15.40;99.90
19365;DHT22;9818;48.382;10.850;2022-07-10T04:11:49;15.50;99.90
19365;DHT22;9818;48.382;10.850;2022-07-10T04:14:18;15.50;99.90
19365;DHT22;9818;48.382;10.850;2022-07-10T04:16:47;15.50;99.90
19365;DHT22;9818;48.382;10.850;2022-07-10T04:19:15;15.60;99.90
19365;DHT22;9818;48.382;10.850;2022-07-10T04:21:44;15.50;99.90
19365;DHT22;9818;48.382;10.850;2022-07-10T04:24:13;15.50;99.90
19365;DHT22;9818;48.382;10.850;2022-07-10T04:26:42;15.60;99.90
19365;DHT22;9818;48.382;10.850;2022-07-10T04:29:13;15.60;99.90
19365;DHT22;9818;48.382;10.850;2022-07-10T04:31:42;15.60;99.90
19365;DHT22;9818;48.382;10.850;2022-07-10T04:34:11;15.70;99.90
19365;DHT22;9818;48.382;10.850;2022-07-10T04:36:39;15.70;99.90
19365;DHT22;9818;48.382;10.850;2022-07-10T04:39:08;15.70;99.90
19365;DHT22;9818;48.382;10.850;2022-07-10T04:41:37;15.70;99.90
19365;DHT22;9818;48.382;10.850;2022-07-10T04:44:05;15.70;99.90
19365;DHT22;9818;48.382;10.850;2022-07-10T04:46:37;15.70;99.90
19365;DHT22;9818;48.382;10.850;2022-07-10T04:49:05;15.70;99.90
19365;DHT22;9818;48.382;10.850;2022-07-10T04:51:35;15.70;99.90
19365;DHT22;9818;48.382;10.850;2022-07-10T04:54:04;15.50;99.90
19365;DHT22;9818;48.382;10.850;2022-07-10T04:56:32;15.60;99.90
19365;DHT22;9818;48.382;10.850;2022-07-10T04:59:01;15.70;99.90
19365;DHT22;9818;48.382;10.850;2022-07-10T05:01:30;15.50;99.90
19365;DHT22;9818;48.382;10.850;2022-07-10T05:04:01;15.60;99.90
19365;DHT22;9818;48.382;10.850;2022-07-10T05:06:30;15.50;99.90
19365;DHT22;9818;48.382;10.850;2022-07-10T05:08:59;15.50;99.90
19365;DHT22;9818;48.382;10.850;2022-07-10T05:11:28;15.60;99.90
19365;DHT22;9818;48.382;10.850;2022-07-10T05:13:57;15.60;99.90
19365;DHT22;9818;48.382;10.850;2022-07-10T05:16:26;15.60;99.90
19365;DHT22;9818;48.382;10.850;2022-07-10T05:18:54;15.60;99.90
19365;DHT22;9818;48.382;10.850;2022-07-10T05:21:26;15.60;99.90
19365;DHT22;9818;48.382;10.850;2022-07-10T05:23:55;15.60;99.90
19365;DHT22;9818;48.382;10.850;2022-07-10T05:26:24;15.60;99.90
19365;DHT22;9818;48.382;10.850;2022-07-10T05:28:53;15.70;99.90
19365;DHT22;9818;48.382;10.850;2022-07-10T05:31:21;15.70;99.90
19365;DHT22;9818;48.382;10.850;2022-07-10T05:33:50;15.40;99.90
19365;DHT22;9818;48.382;10.850;2022-07-10T05:36:19;15.50;99.90
19365;DHT22;9818;48.382;10.850;2022-07-10T05:38:50;15.70;99.90
19365;DHT22;9818;48.382;10.850;2022-07-10T05:41:19;15.80;99.90
19365;DHT22;9818;48.382;10.850;2022-07-10T05:43:48;16.00;99.90
19365;DHT22;9818;48.382;10.850;2022-07-10T05:46:16;16.10;99.90
19365;DHT22;9818;48.382;10.850;2022-07-10T05:48:45;16.60;99.90
19365;DHT22;9818;48.382;10.850;2022-07-10T05:51:14;17.00;99.90
19365;DHT22;9818;48.382;10.850;2022-07-10T05:53:42;17.80;99.90
19365;DHT22;9818;48.382;10.850;2022-07-10T05:56:14;20.00;99.90
19365;DHT22;9818;48.382;10.850;2022-07-10T05:58:42;21.90;99.90
19365;DHT22;9818;48.382;10.850;2022-07-10T06:01:10;22.50;99.90
19365;DHT22;9818;48.382;10.850;2022-07-10T06:03:39;23.40;99.90
19365;DHT22;9818;48.382;10.850;2022-07-10T06:06:08;24.30;99.90
19365;DHT22;9818;48.382;10.850;2022-07-10T06:08:41;21.60;99.90
19365;DHT22;9818;48.382;10.850;2022-07-10T06:11:09;22.20;99.90
19365;DHT22;9818;48.382;10.850;2022-07-10T06:13:41;20.80;99.90
19365;DHT22;9818;48.382;10.850;2022-07-10T06:16:10;19.40;99.90
19365;DHT22;9818;48.382;10.850;2022-07-10T06:18:38;18.60;99.90
19365;DHT22;9818;48.382;10.850;2022-07-10T06:21:07;19.40;99.90
19365;DHT22;9818;48.382;10.850;2022-07-10T06:23:36;19.10;99.90
19365;DHT22;9818;48.382;10.850;2022-07-10T06:26:05;19.40;99.90
19365;DHT22;9818;48.382;10.850;2022-07-10T06:28:34;20.70;99.90
19365;DHT22;9818;48.382;10.850;2022-07-10T06:31:07;19.90;99.90
19365;DHT22;9818;48.382;10.850;2022-07-10T06:33:36;18.60;99.90
19365;DHT22;9818;48.382;10.850;2022-07-10T06:36:05;19.10;99.90
19365;DHT22;9818;48.382;10.850;2022-07-10T06:38:34;18.30;99.90
19365;DHT22;9818;48.382;10.850;2022-07-10T06:41:03;17.50;99.90
19365;DHT22;9818;48.382;10.850;2022-07-10T06:43:31;18.00;99.90
19365;DHT22;9818;48.382;10.850;2022-07-10T06:46:00;18.40;99.90
19365;DHT22;9818;48.382;10.850;2022-07-10T06:48:31;18.10;99.90
19365;DHT22;9818;48.382;10.850;2022-07-10T06:50:58;17.50;99.90
19365;DHT22;9818;48.382;10.850;2022-07-10T06:53:26;17.20;99.90
19365;DHT22;9818;48.382;10.850;2022-07-10T06:55:55;17.50;99.90
19365;DHT22;9818;48.382;10.850;2022-07-10T06:58:24;18.20;99.90
19365;DHT22;9818;48.382;10.850;2022-07-10T07:00:52;19.20;99.90
19365;DHT22;9818;48.382;10.850;2022-07-10T07:03:20;19.00;99.90
19365;DHT22;9818;48.382;10.850;2022-07-10T07:05:52;18.60;99.90
19365;DHT22;9818;48.382;10.850;2022-07-10T07:08:20;18.00;99.90
19365;DHT22;9818;48.382;10.850;2022-07-10T07:10:49;18.30;99.90
19365;DHT22;9818;48.382;10.850;2022-07-10T07:13:17;18.00;99.90
19365;DHT22;9818;48.382;10.850;2022-07-10T07:15:46;18.70;99.90
19365;DHT22;9818;48.382;10.850;2022-07-10T07:18:22;21.10;99.90
19365;DHT22;9818;48.382;10.850;2022-07-10T07:21:00;23.10;99.90
19365;DHT22;9818;48.382;10.850;2022-07-10T07:23:41;20.30;99.90
19365;DHT22;9818;48.382;10.850;2022-07-10T07:26:10;19.10;99.90
19365;DHT22;9818;48.382;10.850;2022-07-10T07:28:39;18.90;99.90
19365;DHT22;9818;48.382;10.850;2022-07-10T07:31:07;19.70;99.90
19365;DHT22;9818;48.382;10.850;2022-07-10T07:33:36;19.90;99.90
19365;DHT22;9818;48.382;10.850;2022-07-10T07:36:07;20.00;99.90
19365;DHT22;9818;48.382;10.850;2022-07-10T07:38:36;20.10;99.90
19365;DHT22;9818;48.382;10.850;2022-07-10T07:41:05;19.30;99.90
19365;DHT22;9818;48.382;10.850;2022-07-10T07:43:34;20.80;99.90
19365;DHT22;9818;48.382;10.850;2022-07-10T07:46:03;21.30;99.90
19365;DHT22;9818;48.382;10.850;2022-07-10T07:48:32;22.00;99.90
19365;DHT22;9818;48.382;10.850;2022-07-10T07:51:00;21.50;99.90
19365;DHT22;9818;48.382;10.850;2022-07-10T07:53:32;21.80;99.90
19365;DHT22;9818;48.382;10.850;2022-07-10T07:56:00;21.10;99.90
19365;DHT22;9818;48.382;10.850;2022-07-10T07:58:29;21.00;99.90
19365;DHT22;9818;48.382;10.850;2022-07-10T08:00:57;21.70;99.90
19365;DHT22;9818;48.382;10.850;2022-07-10T08:03:26;21.60;99.90
19365;DHT22;9818;48.382;10.850;2022-07-10T08:05:54;19.70;99.90
19365;DHT22;9818;48.382;10.850;2022-07-10T08:08:23;19.70;99.90
19365;DHT22;9818;48.382;10.850;2022-07-10T08:10:54;20.80;99.90
19365;DHT22;9818;48.382;10.850;2022-07-10T08:13:23;23.60;99.90
19365;DHT22;9818;48.382;10.850;2022-07-10T08:15:51;23.40;99.90
19365;DHT22;9818;48.382;10.850;2022-07-10T08:18:20;22.30;99.90
19365;DHT22;9818;48.382;10.850;2022-07-10T08:20:49;21.60;99.90
19365;DHT22;9818;48.382;10.850;2022-07-10T08:23:18;21.50;99.90
19365;DHT22;9818;48.382;10.850;2022-07-10T08:25:46;21.40;99.90
19365;DHT22;9818;48.382;10.850;2022-07-10T08:28:17;22.60;99.90
19365;DHT22;9818;48.382;10.850;2022-07-10T08:30:46;23.80;99.90
19365;DHT22;9818;48.382;10.850;2022-07-10T08:33:14;25.30;99.90
19365;DHT22;9818;48.382;10.850;2022-07-10T08:35:43;23.80;99.90
19365;DHT22;9818;48.382;10.850;2022-07-10T08:38:12;22.40;99.90
19365;DHT22;9818;48.382;10.850;2022-07-10T08:40:41;22.50;99.90
19365;DHT22;9818;48.382;10.850;2022-07-10T08:43:10;21.90;99.90
19365;DHT22;9818;48.382;10.850;2022-07-10T08:45:42;24.10;99.90
19365;DHT22;9818;48.382;10.850;2022-07-10T08:48:10;24.40;99.90
19365;DHT22;9818;48.382;10.850;2022-07-10T08:50:42;22.90;99.90
19365;DHT22;9818;48.382;10.850;2022-07-10T08:53:13;24.50;99.90
19365;DHT22;9818;48.382;10.850;2022-07-10T08:55:45;26.70;99.90
19365;DHT22;9818;48.382;10.850;2022-07-10T08:58:14;29.70;99.90
19365;DHT22;9818;48.382;10.850;2022-07-10T09:00:45;28.50;99.90
19365;DHT22;9818;48.382;10.850;2022-07-10T09:03:14;27.70;99.90
19365;DHT22;9818;48.382;10.850;2022-07-10T09:05:42;23.70;99.90
19365;DHT22;9818;48.382;10.850;2022-07-10T09:08:23;23.20;99.90
19365;DHT22;9818;48.382;10.850;2022-07-10T09:10:54;21.30;99.90
19365;DHT22;9818;48.382;10.850;2022-07-10T09:13:48;21.00;99.90
19365;DHT22;9818;48.382;10.850;2022-07-10T09:16:23;21.30;99.90
19365;DHT22;9818;48.382;10.850;2022-07-10T09:18:52;23.10;99.90
19365;DHT22;9818;48.382;10.850;2022-07-10T09:21:20;26.60;99.90
19365;DHT22;9818;48.382;10.850;2022-07-10T09:23:49;27.60;99.90
19365;DHT22;9818;48.382;10.850;2022-07-10T09:26:18;25.70;99.90
19365;DHT22;9818;48.382;10.850;2022-07-10T09:28:46;25.20;99.90
19365;DHT22;9818;48.382;10.850;2022-07-10T09:31:24;24.90;99.90
19365;DHT22;9818;48.382;10.850;2022-07-10T09:33:52;25.90;99.90
19365;DHT22;9818;48.382;10.850;2022-07-10T09:36:21;27.10;99.90
19365;DHT22;9818;48.382;10.850;2022-07-10T09:38:51;28.50;99.90
19365;DHT22;9818;48.382;10.850;2022-07-10T09:41:22;28.00;99.90
19365;DHT22;9818;48.382;10.850;2022-07-10T09:43:51;25.60;99.90
19365;DHT22;9818;48.382;10.850;2022-07-10T09:46:24;24.50;99.90
19365;DHT22;9818;48.382;10.850;2022-07-10T09:49:02;26.10;99.90
19365;DHT22;9818;48.382;10.850;2022-07-10T09:51:32;28.30;99.90
19365;DHT22;9818;48.382;10.850;2022-07-10T09:54:03;30.20;94.80
19365;DHT22;9818;48.382;10.850;2022-07-10T09:56:42;32.20;92.90
19365;DHT22;9818;48.382;10.850;2022-07-10T09:59:13;30.60;80.80
19365;DHT22;9818;48.382;10.850;2022-07-10T10:01:46;27.90;96.20
19365;DHT22;9818;48.382;10.850;2022-07-10T10:04:16;28.30;97.00
19365;DHT22;9818;48.382;10.850;2022-07-10T10:06:46;27.50;94.00
19365;DHT22;9818;48.382;10.850;2022-07-10T10:09:22;26.00;99.90
19365;DHT22;9818;48.382;10.850;2022-07-10T10:11:56;26.10;99.90
19365;DHT22;9818;48.382;10.850;2022-07-10T10:14:28;26.20;99.90
19365;DHT22;9818;48.382;10.850;2022-07-10T10:17:00;25.10;99.90
19365;DHT22;9818;48.382;10.850;2022-07-10T10:19:30;24.10;99.90
19365;DHT22;9818;48.382;10.850;2022-07-10T10:22:11;25.40;99.90
19365;DHT22;9818;48.382;10.850;2022-07-10T10:24:40;26.10;99.90
19365;DHT22;9818;48.382;10.850;2022-07-10T10:27:11;23.90;99.90
19365;DHT22;9818;48.382;10.850;2022-07-10T10:29:39;23.80;99.90
19365;DHT22;9818;48.382;10.850;2022-07-10T10:32:11;26.90;99.90
19365;DHT22;9818;48.382;10.850;2022-07-10T10:34:41;27.10;99.90
19365;DHT22;9818;48.382;10.850;2022-07-10T10:39:56;28.90;90.20
19365;DHT22;9818;48.382;10.850;2022-07-10T10:42:31;23.90;99.90
19365;DHT22;9818;48.382;10.850;2022-07-10T10:47:59;23.10;99.90
19365;DHT22;9818;48.382;10.850;2022-07-10T10:50:38;23.20;99.90
19365;DHT22;9818;48.382;10.850;2022-07-10T10:53:13;25.10;99.90
19365;DHT22;9818;48.382;10.850;2022-07-10T10:58:26;28.00;96.90
19365;DHT22;9818;48.382;10.850;2022-07-10T11:01:02;29.00;87.60
19365;DHT22;9818;48.382;10.850;2022-07-10T11:03:33;26.80;84.60
19365;DHT22;9818;48.382;10.850;2022-07-10T11:06:02;23.80;99.90
19365;DHT22;9818;48.382;10.850;2022-07-10T11:08:36;23.80;99.90
19365;DHT22;9818;48.382;10.850;2022-07-10T11:13:48;23.50;99.90
19365;DHT22;9818;48.382;10.850;2022-07-10T11:16:17;23.50;99.90
19365;DHT22;9818;48.382;10.850;2022-07-10T11:18:49;23.70;99.90
19365;DHT22;9818;48.382;10.850;2022-07-10T11:21:22;24.10;99.90
19365;DHT22;9818;48.382;10.850;2022-07-10T11:23:53;22.90;99.90
19365;DHT22;9818;48.382;10.850;2022-07-10T11:26:28;22.30;99.90
19365;DHT22;9818;48.382;10.850;2022-07-10T11:29:03;22.90;99.90
19365;DHT22;9818;48.382;10.850;2022-07-10T11:31:32;23.10;99.90
19365;DHT22;9818;48.382;10.850;2022-07-10T11:34:07;22.70;99.90
19365;DHT22;9818;48.382;10.850;2022-07-10T11:36:38;21.70;99.90
19365;DHT22;9818;48.382;10.850;2022-07-10T11:39:07;22.20;99.90
19365;DHT22;9818;48.382;10.850;2022-07-10T11:41:42;22.90;99.90
19365;DHT22;9818;48.382;10.850;2022-07-10T11:44:13;22.30;99.90
19365;DHT22;9818;48.382;10.850;2022-07-10T11:46:41;21.60;99.90
19365;DHT22;9818;48.382;10.850;2022-07-10T11:49:13;22.30;99.90
19365;DHT22;9818;48.382;10.850;2022-07-10T11:51:42;22.00;99.90
19365;DHT22;9818;48.382;10.850;2022-07-10T11:54:11;22.50;99.90
19365;DHT22;9818;48.382;10.850;2022-07-10T11:56:42;22.20;99.90
19365;DHT22;9818;48.382;10.850;2022-07-10T11:59:11;21.90;99.90
19365;DHT22;9818;48.382;10.850;2022-07-10T12:01:40;21.80;99.90
19365;DHT22;9818;48.382;10.850;2022-07-10T12:04:09;21.80;99.90
19365;DHT22;9818;48.382;10.850;2022-07-10T12:06:41;22.70;99.90
19365;DHT22;9818;48.382;10.850;2022-07-10T12:09:10;23.30;99.90
19365;DHT22;9818;48.382;10.850;2022-07-10T12:11:39;23.20;99.90
19365;DHT22;9818;48.382;10.850;2022-07-10T12:14:09;23.20;99.90
19365;DHT22;9818;48.382;10.850;2022-07-10T12:16:37;21.90;99.90
19365;DHT22;9818;48.382;10.850;2022-07-10T12:19:08;22.00;99.90
19365;DHT22;9818;48.382;10.850;2022-07-10T12:21:37;23.00;99.90
19365;DHT22;9818;48.382;10.850;2022-07-10T12:24:09;22.60;99.90
19365;DHT22;9818;48.382;10.850;2022-07-10T12:26:40;22.60;99.90
19365;DHT22;9818;48.382;10.850;2022-07-10T12:29:11;21.40;99.90
19365;DHT22;9818;48.382;10.850;2022-07-10T12:31:39;21.50;99.90
19365;DHT22;9818;48.382;10.850;2022-07-10T12:34:10;20.80;99.90
19365;DHT22;9818;48.382;10.850;2022-07-10T12:36:46;20.40;99.90
19365;DHT22;9818;48.382;10.850;2022-07-10T12:39:18;19.90;99.90
19365;DHT22;9818;48.382;10.850;2022-07-10T12:41:53;20.10;99.90
19365;DHT22;9818;48.382;10.850;2022-07-10T12:44:38;20.70;99.90
19365;DHT22;9818;48.382;10.850;2022-07-10T12:47:07;21.50;99.90
19365;DHT22;9818;48.382;10.850;2022-07-10T12:52:21;21.90;99.90
19365;DHT22;9818;48.382;10.850;2022-07-10T12:57:48;21.50;99.90
19365;DHT22;9818;48.382;10.850;2022-07-10T13:00:17;21.10;99.90
19365;DHT22;9818;48.382;10.850;2022-07-10T13:02:46;20.80;99.90
19365;DHT22;9818;48.382;10.850;2022-07-10T13:05:28;21.10;99.90
19365;DHT22;9818;48.382;10.850;2022-07-10T13:08:09;21.60;99.90
19365;DHT22;9818;48.382;10.850;2022-07-10T13:10:40;22.00;99.90
19365;DHT22;9818;48.382;10.850;2022-07-10T13:13:12;22.00;99.90
19365;DHT22;9818;48.382;10.850;2022-07-10T13:15:41;22.10;99.90
19365;DHT22;9818;48.382;10.850;2022-07-10T13:18:15;22.40;99.90
19365;DHT22;9818;48.382;10.850;2022-07-10T13:20:44;22.20;99.90
19365;DHT22;9818;48.382;10.850;2022-07-10T13:23:13;22.40;99.90
19365;DHT22;9818;48.382;10.850;2022-07-10T13:25:42;23.30;99.90
19365;DHT22;9818;48.382;10.850;2022-07-10T13:28:14;23.40;99.90
19365;DHT22;9818;48.382;10.850;2022-07-10T13:30:42;22.10;99.90
19365;DHT22;9818;48.382;10.850;2022-07-10T13:33:11;21.80;99.90
19365;DHT22;9818;48.382;10.850;2022-07-10T13:35:40;21.70;99.90
19365;DHT22;9818;48.382;10.850;2022-07-10T13:38:08;21.90;99.90
19365;DHT22;9818;48.382;10.850;2022-07-10T13:40:37;22.20;99.90
19365;DHT22;9818;48.382;10.850;2022-07-10T13:43:06;21.40;99.90
19365;DHT22;9818;48.382;10.850;2022-07-10T13:45:37;20.80;99.90
19365;DHT22;9818;48.382;10.850;2022-07-10T13:48:08;21.70;99.90
19365;DHT22;9818;48.382;10.850;2022-07-10T13:50:37;22.20;99.90
19365;DHT22;9818;48.382;10.850;2022-07-10T13:53:05;22.50;99.90
19365;DHT22;9818;48.382;10.850;2022-07-10T13:55:34;22.70;99.90
19365;DHT22;9818;48.382;10.850;2022-07-10T13:58:03;21.90;99.90
19365;DHT22;9818;48.382;10.850;2022-07-10T14:00:32;21.80;99.90
19365;DHT22;9818;48.382;10.850;2022-07-10T14:03:04;22.10;99.90
19365;DHT22;9818;48.382;10.850;2022-07-10T14:05:34;21.30;99.90
19365;DHT22;9818;48.382;10.850;2022-07-10T14:08:03;21.50;99.90
19365;DHT22;9818;48.382;10.850;2022-07-10T14:10:32;20.90;99.90
19365;DHT22;9818;48.382;10.850;2022-07-10T14:13:00;20.60;99.90
19365;DHT22;9818;48.382;10.850;2022-07-10T14:15:30;20.60;99.90
19365;DHT22;9818;48.382;10.850;2022-07-10T14:18:00;21.60;99.90
19365;DHT22;9818;48.382;10.850;2022-07-10T14:20:31;22.10;99.90
19365;DHT22;9818;48.382;10.850;2022-07-10T14:23:20;22.50;99.90
19365;DHT22;9818;48.382;10.850;2022-07-10T14:25:49;22.20;99.90
19365;DHT22;9818;48.382;10.850;2022-07-10T14:28:20;22.50;99.90
19365;DHT22;9818;48.382;10.850;2022-07-10T14:30:49;22.90;99.90
19365;DHT22;9818;48.382;10.850;2022-07-10T14:33:17;23.40;99.10
19365;DHT22;9818;48.382;10.850;2022-07-10T14:35:48;23.40;97.10
19365;DHT22;9818;48.382;10.850;2022-07-10T14:38:17;23.40;94.30
19365;DHT22;9818;48.382;10.850;2022-07-10T14:40:45;23.10;96.00
19365;DHT22;9818;48.382;10.850;2022-07-10T14:43:16;23.50;94.10
19365;DHT22;9818;48.382;10.850;2022-07-10T14:45:45;23.60;94.40
19365;DHT22;9818;48.382;10.850;2022-07-10T14:48:13;23.40;95.90
19365;DHT22;9818;48.382;10.850;2022-07-10T14:50:42;23.30;95.50
19365;DHT22;9818;48.382;10.850;2022-07-10T14:53:13;23.60;94.70
19365;DHT22;9818;48.382;10.850;2022-07-10T14:55:42;23.20;94.50
19365;DHT22;9818;48.382;10.850;2022-07-10T14:58:10;23.10;97.20
19365;DHT22;9818;48.382;10.850;2022-07-10T15:00:39;22.90;95.90
19365;DHT22;9818;48.382;10.850;2022-07-10T15:03:07;22.70;96.90
19365;DHT22;9818;48.382;10.850;2022-07-10T15:05:36;22.60;98.80
19365;DHT22;9818;48.382;10.850;2022-07-10T15:08:05;22.60;99.20
19365;DHT22;9818;48.382;10.850;2022-07-10T15:10:36;22.40;99.90
19365;DHT22;9818;48.382;10.850;2022-07-10T15:13:07;21.50;99.90
19365;DHT22;9818;48.382;10.850;2022-07-10T15:15:36;21.60;99.90
19365;DHT22;9818;48.382;10.850;2022-07-10T15:18:05;21.80;99.90
19365;DHT22;9818;48.382;10.850;2022-07-10T15:20:33;22.10;99.90
19365;DHT22;9818;48.382;10.850;2022-07-10T15:23:02;22.10;99.90
19365;DHT22;9818;48.382;10.850;2022-07-10T15:25:31;22.60;99.30
19365;DHT22;9818;48.382;10.850;2022-07-10T15:28:02;22.40;99.90
19365;DHT22;9818;48.382;10.850;2022-07-10T15:30:31;21.40;99.90
19365;DHT22;9818;48.382;10.850;2022-07-10T15:32:59;21.10;99.90
19365;DHT22;9818;48.382;10.850;2022-07-10T15:35:28;21.00;99.90
19365;DHT22;9818;48.382;10.850;2022-07-10T15:37:56;21.00;99.90
19365;DHT22;9818;48.382;10.850;2022-07-10T15:40:25;21.20;99.90
19365;DHT22;9818;48.382;10.850;2022-07-10T15:42:53;21.10;99.90
19365;DHT22;9818;48.382;10.850;2022-07-10T15:45:25;21.60;99.90
19365;DHT22;9818;48.382;10.850;2022-07-10T15:47:53;22.00;99.90
19365;DHT22;9818;48.382;10.850;2022-07-10T15:50:22;22.40;99.90
19365;DHT22;9818;48.382;10.850;2022-07-10T15:52:50;22.80;99.50
19365;DHT22;9818;48.382;10.850;2022-07-10T15:55:19;22.70;98.40
19365;DHT22;9818;48.382;10.850;2022-07-10T15:57:47;22.60;99.20
19365;DHT22;9818;48.382;10.850;2022-07-10T16:00:16;22.80;99.50
19365;DHT22;9818;48.382;10.850;2022-07-10T16:02:48;22.60;98.30
19365;DHT22;9818;48.382;10.850;2022-07-10T16:05:18;21.90;99.90
19365;DHT22;9818;48.382;10.850;2022-07-10T16:07:46;21.60;99.50
19365;DHT22;9818;48.382;10.850;2022-07-10T16:10:15;20.80;99.90
19365;DHT22;9818;48.382;10.850;2022-07-10T16:12:43;20.50;99.90